Dougherty, Texas
Current Conditions -  °F | °C
As of 7:15 PM on Tuesday 27 Jan 2015 (Local Time) from KPVW Reporting Station
Clear Clear  
Wind Chill: 55°   Ceiling: Unl
Heat Index: 55°   Visibility: 10mi
Dew Point: 35°   Wind: 8mph
Humidity: 47%   Direction: 200°SSW
Pressure: 30.13"   Gusts: NA
Location:  33.94°N, 101.09°W
Report Text: KPVW 280115Z AUTO 20007KT 10SM CLR 13/02 A3013 RMK AO2 T01270015
Loading
Personal Weather Stations






























Interactive Weather Map New forecast layout! Learn more

10-Day Weather Forecast

Advertisements
Track Severe Weather on mobile